Bisbee Douglas International Airport Douglas Bisbee US
ICAO: KDUG
IATA: DUG
Category: Medium
Scheduled Services: No

Elevation: 4154 ft
TransAlt. 18000 ft.

Airport Communications:
ASOS:119.275
PRESCOTT RDO:122.4
CTAF/UNICOM:123

KDUG Zoom In..

Runways:

(A) RW 08 length 4966 ft width 60 ft
---- / hdg 78

(B) RW 17 length 6430 ft width 100 ft
---- / hdg 168

(C) RW 26 length 4966 ft width 60 ft
---- / hdg 258

(D) RW 35 length 6430 ft width 100 ft
---- / hdg 348

Location; KDUG
Day. 26 / Time. 13.56 Zulu
* Altimeter: 30.01
* Temperature: 23° c. 73.4°f.
* Wind from: 350° Speed 04 kn.
Dewpoint: -02° c.
Visibility: 10 Statute Miles.
Clouds: Clear (automated report).

KDUG 261356Z AUTO 35004KT 10SM CLR 23/M02 A3001 RMK AO2 SLP085 T02281017


Wind From 350°
Speed 04 kn.

 
 
jpsmedia.com for Web Design SOUNDCLOUD worldairports.se 2018   terms of use